createdAt,value
2022-11-05T00:00:15.967Z,96.92
2022-11-05T00:01:16.116Z,96.82
2022-11-05T00:02:16.126Z,96.72
2022-11-05T00:03:16.273Z,96.82
2022-11-05T00:04:16.260Z,96.72
2022-11-05T00:05:16.348Z,96.62
2022-11-05T00:06:16.413Z,96.45
2022-11-05T00:07:16.528Z,96.56
2022-11-05T00:08:16.574Z,96.45
2022-11-05T00:09:16.669Z,96.35
2022-11-05T00:10:16.737Z,96.45
2022-11-05T00:11:18.270Z,96.45
2022-11-05T00:12:16.909Z,96.45
2022-11-05T00:13:16.973Z,96.45
2022-11-05T00:14:17.046Z,96.50
2022-11-05T00:15:17.132Z,96.50
2022-11-05T00:16:17.203Z,96.50
2022-11-05T00:17:17.313Z,96.19
2022-11-05T00:18:17.380Z,96.30
2022-11-05T00:19:17.486Z,96.40
2022-11-05T00:20:17.558Z,96.50
2022-11-05T00:21:17.650Z,96.34
2022-11-05T00:22:17.740Z,96.34
2022-11-05T00:23:17.802Z,96.44
2022-11-05T00:24:23.223Z,96.55
2022-11-05T00:25:17.976Z,96.65
2022-11-05T00:26:18.049Z,96.65
2022-11-05T00:27:18.141Z,96.55
2022-11-05T00:28:18.178Z,96.55
2022-11-05T00:29:18.261Z,96.34
2022-11-05T00:30:18.337Z,96.34
2022-11-05T00:31:18.423Z,96.44
2022-11-05T00:32:18.509Z,96.44
2022-11-05T00:33:18.574Z,96.34
2022-11-05T00:34:18.646Z,96.28
2022-11-05T00:35:18.739Z,96.48
2022-11-05T00:36:18.812Z,96.48
2022-11-05T00:37:18.921Z,96.48
2022-11-05T00:38:18.984Z,96.39
2022-11-05T00:39:19.079Z,96.39
2022-11-05T00:40:19.147Z,96.39
2022-11-05T00:41:19.255Z,96.39
2022-11-05T00:42:19.350Z,96.59
2022-11-05T00:43:19.424Z,96.59
2022-11-05T00:44:19.493Z,96.48
2022-11-05T00:45:19.596Z,96.39
2022-11-05T00:46:19.673Z,96.39
2022-11-05T00:47:19.766Z,96.59
2022-11-05T00:48:19.809Z,96.59
2022-11-05T00:49:19.927Z,96.69
2022-11-05T00:50:20.006Z,96.69
2022-11-05T00:51:20.117Z,96.80
2022-11-05T00:52:20.210Z,96.59
2022-11-05T00:53:20.267Z,96.48
2022-11-05T00:54:20.345Z,96.48
2022-11-05T00:55:20.450Z,96.59
2022-11-05T00:56:20.527Z,96.69
2022-11-05T00:57:20.647Z,96.39
2022-11-05T00:58:20.687Z,96.39
2022-11-05T00:59:20.792Z,96.39
2022-11-05T01:00:20.868Z,96.28
2022-11-05T01:01:21.026Z,96.28
2022-11-05T01:02:21.249Z,96.22
2022-11-05T01:03:21.115Z,96.33
2022-11-05T01:04:21.194Z,96.22
2022-11-05T01:05:21.301Z,96.22
2022-11-05T01:06:21.361Z,96.12
2022-11-05T01:07:21.480Z,96.12
2022-11-05T01:08:21.517Z,96.12
2022-11-05T01:09:21.624Z,96.22
2022-11-05T01:10:21.702Z,96.12
2022-11-05T01:11:21.812Z,96.12
2022-11-05T01:12:21.915Z,95.92
2022-11-05T01:13:21.993Z,95.81
2022-11-05T01:14:22.061Z,95.81
2022-11-05T01:15:22.159Z,95.81
2022-11-05T01:16:22.239Z,95.92
2022-11-05T01:17:22.357Z,95.92
2022-11-05T01:18:22.396Z,95.92
2022-11-05T01:19:22.477Z,96.02
2022-11-05T01:20:22.553Z,95.81
2022-11-05T01:21:22.667Z,95.86
2022-11-05T01:22:22.739Z,95.71
2022-11-05T01:23:22.790Z,95.65
2022-11-05T01:24:22.857Z,95.65
2022-11-05T01:25:22.941Z,95.75
2022-11-05T01:26:22.987Z,95.75
2022-11-05T01:27:23.120Z,95.86
2022-11-05T01:28:23.237Z,95.75
2022-11-05T01:29:23.254Z,95.86
2022-11-05T01:30:23.332Z,95.75
2022-11-05T01:31:23.434Z,95.75
2022-11-05T01:32:23.526Z,95.75
2022-11-05T01:33:23.597Z,95.75
2022-11-05T01:34:23.675Z,95.86
2022-11-05T01:35:23.786Z,95.96
2022-11-05T01:36:23.865Z,95.90
2022-11-05T01:37:24.002Z,95.96
2022-11-05T01:38:24.040Z,96.11
2022-11-05T01:39:24.125Z,96.21
2022-11-05T01:40:24.193Z,96.00
2022-11-05T01:41:24.296Z,95.90
2022-11-05T01:42:24.400Z,96.11
2022-11-05T01:43:24.447Z,96.00
2022-11-05T01:44:24.527Z,95.90
2022-11-05T01:45:24.632Z,96.00
2022-11-05T01:46:24.717Z,96.11
2022-11-05T01:47:24.826Z,96.21
2022-11-05T01:48:24.867Z,96.11
2022-11-05T01:49:24.970Z,96.21
2022-11-05T01:50:25.049Z,96.11
2022-11-05T01:51:25.142Z,96.15
2022-11-05T01:52:25.235Z,96.15
2022-11-05T01:53:25.309Z,96.15
2022-11-05T01:54:25.386Z,96.05
2022-11-05T01:55:25.495Z,96.25
2022-11-05T01:56:25.568Z,96.36
2022-11-05T01:57:25.681Z,96.46
2022-11-05T01:58:25.733Z,96.36
2022-11-05T01:59:25.845Z,96.46
2022-11-05T02:00:25.918Z,96.25
2022-11-05T02:01:26.134Z,96.05
2022-11-05T02:02:26.297Z,96.15
2022-11-05T02:03:26.208Z,96.15
2022-11-05T02:04:26.288Z,95.95
2022-11-05T02:05:26.400Z,95.95
2022-11-05T02:06:26.460Z,95.84
2022-11-05T02:07:26.583Z,95.89
2022-11-05T02:08:26.620Z,95.99
2022-11-05T02:09:26.723Z,95.84
2022-11-05T02:10:26.803Z,95.78
2022-11-05T02:11:26.897Z,95.78
2022-11-05T02:12:27.009Z,95.78
2022-11-05T02:13:27.071Z,95.68
2022-11-05T02:14:27.148Z,95.78
2022-11-05T02:15:27.232Z,95.78
2022-11-05T02:16:27.292Z,95.89
2022-11-05T02:17:27.416Z,95.78
2022-11-05T02:18:27.453Z,95.68
2022-11-05T02:19:27.562Z,95.68
2022-11-05T02:20:27.607Z,95.78
2022-11-05T02:21:27.714Z,95.89
2022-11-05T02:22:27.809Z,95.89
2022-11-05T02:23:27.890Z,95.99
2022-11-05T02:24:27.962Z,95.99
2022-11-05T02:25:28.052Z,95.99
2022-11-05T02:26:28.144Z,95.89
2022-11-05T02:27:28.253Z,96.03
2022-11-05T02:28:28.325Z,96.20
2022-11-05T02:29:28.425Z,96.20
2022-11-05T02:30:28.502Z,96.09
2022-11-05T02:31:28.603Z,96.09
2022-11-05T02:32:28.693Z,95.89
2022-11-05T02:33:28.764Z,95.68
2022-11-05T02:34:28.839Z,95.78
2022-11-05T02:35:28.938Z,95.89
2022-11-05T02:36:29.016Z,95.89
2022-11-05T02:37:29.135Z,95.78
2022-11-05T02:38:29.237Z,95.48
2022-11-05T02:39:29.309Z,95.37
2022-11-05T02:40:29.386Z,95.48
2022-11-05T02:41:29.490Z,95.48
2022-11-05T02:42:29.587Z,95.48
2022-11-05T02:43:29.656Z,95.48
2022-11-05T02:44:29.731Z,95.68
2022-11-05T02:45:29.834Z,95.89
2022-11-05T02:46:29.910Z,95.99
2022-11-05T02:47:30.029Z,96.09
2022-11-05T02:48:30.073Z,96.09
2022-11-05T02:49:30.165Z,96.09
2022-11-05T02:50:30.245Z,96.09
2022-11-05T02:51:30.330Z,95.99
2022-11-05T02:52:30.421Z,95.99
2022-11-05T02:53:30.495Z,95.89
2022-11-05T02:54:30.574Z,95.78
2022-11-05T02:55:30.661Z,95.68
2022-11-05T02:56:30.744Z,95.58
2022-11-05T02:57:30.930Z,95.48
2022-11-05T02:58:30.887Z,95.48
2022-11-05T02:59:30.990Z,95.48
2022-11-05T03:00:31.056Z,95.37
2022-11-05T03:01:31.362Z,95.21
2022-11-05T03:02:31.382Z,95.21
2022-11-05T03:03:31.337Z,95.10
2022-11-05T03:04:31.410Z,95.21
2022-11-05T03:05:31.517Z,95.10
2022-11-05T03:06:31.606Z,95.21
2022-11-05T03:07:31.710Z,95.25
2022-11-05T03:08:31.751Z,95.25
2022-11-05T03:09:31.848Z,95.36
2022-11-05T03:10:31.923Z,95.56
2022-11-05T03:11:32.000Z,95.67
2022-11-05T03:12:32.104Z,95.83
2022-11-05T03:13:32.176Z,96.03
2022-11-05T03:14:32.253Z,95.98
2022-11-05T03:15:32.326Z,96.03
2022-11-05T03:16:32.385Z,96.14
2022-11-05T03:17:32.485Z,96.24
2022-11-05T03:18:32.522Z,96.34
2022-11-05T03:19:32.611Z,96.34
2022-11-05T03:20:32.685Z,96.24
2022-11-05T03:21:32.777Z,96.14
2022-11-05T03:22:32.878Z,96.14
2022-11-05T03:23:32.946Z,96.24
2022-11-05T03:24:33.020Z,96.14
2022-11-05T03:25:33.116Z,96.14
2022-11-05T03:26:33.193Z,96.24
2022-11-05T03:27:33.322Z,96.24
2022-11-05T03:28:33.370Z,96.34
2022-11-05T03:29:33.439Z,96.34
2022-11-05T03:30:33.529Z,96.24
2022-11-05T03:31:33.649Z,96.24
2022-11-05T03:32:33.719Z,96.14
2022-11-05T03:33:33.804Z,96.03
2022-11-05T03:34:33.878Z,96.03
2022-11-05T03:35:33.984Z,95.93
2022-11-05T03:36:34.060Z,95.98
2022-11-05T03:37:34.225Z,96.03
2022-11-05T03:38:34.229Z,95.98
2022-11-05T03:39:34.325Z,95.98
2022-11-05T03:40:34.396Z,95.87
2022-11-05T03:41:34.501Z,95.87
2022-11-05T03:42:34.596Z,95.87
2022-11-05T03:43:34.675Z,95.77
2022-11-05T03:44:34.754Z,95.67
2022-11-05T03:45:34.850Z,95.56
2022-11-05T03:46:34.927Z,95.46
2022-11-05T03:47:35.040Z,95.56
2022-11-05T03:48:35.197Z,95.77
2022-11-05T03:49:35.171Z,95.98
2022-11-05T03:50:40.975Z,95.87
2022-11-05T03:51:35.351Z,96.02
2022-11-05T03:52:35.456Z,95.87
2022-11-05T03:53:35.495Z,95.81
2022-11-05T03:54:35.603Z,95.61
2022-11-05T03:55:35.678Z,95.81
2022-11-05T03:56:35.781Z,96.23
2022-11-05T03:57:35.880Z,96.02
2022-11-05T03:58:35.966Z,95.92
2022-11-05T03:59:36.047Z,95.92
2022-11-05T04:00:36.114Z,95.81
2022-11-05T04:01:36.358Z,95.81
2022-11-05T04:02:36.418Z,95.81
2022-11-05T04:03:36.592Z,95.92
2022-11-05T04:04:36.468Z,96.12
2022-11-05T04:05:36.551Z,96.23
2022-11-05T04:06:36.620Z,96.64
2022-11-05T04:07:36.724Z,96.64
2022-11-05T04:08:36.772Z,96.64
2022-11-05T04:09:36.837Z,96.74
2022-11-05T04:10:36.937Z,96.74
2022-11-05T04:11:37.013Z,96.74
2022-11-05T04:12:37.146Z,96.84
2022-11-05T04:13:37.190Z,96.64
2022-11-05T04:14:37.278Z,96.74
2022-11-05T04:15:37.358Z,96.64
2022-11-05T04:16:37.447Z,96.64
2022-11-05T04:17:37.558Z,96.64
2022-11-05T04:18:37.622Z,96.53
2022-11-05T04:19:37.701Z,96.53
2022-11-05T04:20:37.791Z,96.74
2022-11-05T04:21:37.870Z,96.84
2022-11-05T04:22:38.002Z,96.84
2022-11-05T04:23:38.045Z,96.95
2022-11-05T04:24:38.125Z,96.95
2022-11-05T04:25:38.192Z,97.05
2022-11-05T04:26:38.293Z,97.05
2022-11-05T04:27:38.398Z,97.05
2022-11-05T04:28:38.444Z,97.05
2022-11-05T04:29:38.522Z,97.05
2022-11-05T04:30:38.630Z,96.95
2022-11-05T04:31:38.720Z,96.91
2022-11-05T04:32:38.821Z,96.80
2022-11-05T04:33:38.875Z,96.70
2022-11-05T04:34:39.009Z,96.70
2022-11-05T04:35:39.058Z,96.59
2022-11-05T04:36:39.158Z,96.59
2022-11-05T04:37:39.268Z,96.64
2022-11-05T04:38:39.336Z,96.64
2022-11-05T04:39:39.410Z,96.53
2022-11-05T04:40:39.512Z,96.53
2022-11-05T04:41:39.590Z,96.53
2022-11-05T04:42:39.701Z,96.53
2022-11-05T04:43:39.743Z,96.44
2022-11-05T04:44:39.813Z,96.44
2022-11-05T04:45:39.889Z,96.23
2022-11-05T04:46:39.980Z,96.17
2022-11-05T04:47:40.079Z,96.37
2022-11-05T04:48:40.158Z,96.37
2022-11-05T04:49:40.231Z,96.37
2022-11-05T04:50:40.333Z,96.48
2022-11-05T04:51:40.398Z,96.58
2022-11-05T04:52:40.489Z,96.58
2022-11-05T04:53:40.532Z,96.79
2022-11-05T04:54:40.634Z,96.79
2022-11-05T04:55:40.705Z,96.99
2022-11-05T04:56:40.809Z,96.99
2022-11-05T04:57:40.903Z,96.99
2022-11-05T04:58:40.976Z,96.95
2022-11-05T04:59:41.053Z,96.84
2022-11-05T05:00:41.222Z,96.84
2022-11-05T05:01:41.350Z,96.84
2022-11-05T05:02:41.336Z,96.64
2022-11-05T05:03:41.410Z,96.53
2022-11-05T05:04:41.511Z,96.64
2022-11-05T05:05:41.577Z,96.84
2022-11-05T05:06:41.673Z,96.74
2022-11-05T05:07:41.765Z,96.74
2022-11-05T05:08:41.847Z,96.64
2022-11-05T05:09:41.935Z,96.64
2022-11-05T05:10:42.021Z,96.53
2022-11-05T05:11:42.107Z,96.33
2022-11-05T05:12:42.226Z,96.27
2022-11-05T05:13:42.289Z,96.17
2022-11-05T05:14:42.360Z,96.17
2022-11-05T05:15:42.438Z,96.06
2022-11-05T05:16:42.549Z,96.06
2022-11-05T05:17:42.647Z,95.96
2022-11-05T05:18:46.251Z,95.96
2022-11-05T05:19:42.782Z,95.76
2022-11-05T05:20:42.880Z,95.70
2022-11-05T05:21:42.963Z,95.70
2022-11-05T05:22:43.074Z,95.80
2022-11-05T05:23:43.110Z,95.80
2022-11-05T05:24:44.620Z,95.90
2022-11-05T05:25:43.302Z,96.01
2022-11-05T05:26:43.390Z,96.01
2022-11-05T05:27:43.480Z,95.90
2022-11-05T05:28:43.545Z,95.90
2022-11-05T05:29:43.619Z,96.01
2022-11-05T05:30:43.727Z,95.90
2022-11-05T05:31:43.804Z,96.11
2022-11-05T05:32:43.931Z,96.01
2022-11-05T05:33:43.969Z,96.01
2022-11-05T05:34:44.062Z,95.90
2022-11-05T05:35:44.139Z,95.90
2022-11-05T05:36:44.240Z,96.01
2022-11-05T05:37:44.348Z,96.11
2022-11-05T05:38:44.423Z,96.31
2022-11-05T05:39:44.491Z,96.21
2022-11-05T05:40:44.580Z,96.15
2022-11-05T05:41:44.661Z,96.26
2022-11-05T05:42:44.764Z,96.26
2022-11-05T05:43:44.808Z,96.26
2022-11-05T05:44:44.878Z,96.15
2022-11-05T05:45:44.958Z,96.15
2022-11-05T05:46:45.132Z,96.26
2022-11-05T05:47:45.149Z,96.36
2022-11-05T05:48:45.215Z,96.36
2022-11-05T05:49:45.293Z,96.36
2022-11-05T05:50:45.400Z,96.36
2022-11-05T05:51:45.474Z,96.26
2022-11-05T05:52:45.575Z,96.26
2022-11-05T05:53:45.606Z,96.05
2022-11-05T05:54:45.722Z,95.84
2022-11-05T05:55:45.794Z,95.74
2022-11-05T05:56:45.858Z,95.74
2022-11-05T05:57:45.945Z,95.95
2022-11-05T05:58:46.033Z,95.84
2022-11-05T05:59:46.110Z,95.74
2022-11-05T06:00:46.217Z,95.64
2022-11-05T06:01:46.411Z,95.57
2022-11-05T06:02:46.602Z,95.57
2022-11-05T06:03:46.452Z,95.57
2022-11-05T06:04:46.519Z,95.57
2022-11-05T06:05:46.597Z,95.52
2022-11-05T06:06:46.671Z,95.62
2022-11-05T06:07:46.762Z,95.73
2022-11-05T06:08:46.852Z,95.83
2022-11-05T06:09:46.931Z,95.83
2022-11-05T06:10:47.052Z,95.83
2022-11-05T06:11:47.078Z,95.94
2022-11-05T06:12:47.185Z,95.83
2022-11-05T06:13:47.222Z,95.73
2022-11-05T06:14:47.294Z,95.73
2022-11-05T06:15:47.368Z,96.14
2022-11-05T06:16:47.484Z,96.24
2022-11-05T06:17:47.587Z,96.55
2022-11-05T06:18:47.633Z,96.66
2022-11-05T06:19:47.723Z,96.76
2022-11-05T06:20:47.808Z,96.76
2022-11-05T06:21:47.888Z,96.76
2022-11-05T06:22:47.997Z,96.86
2022-11-05T06:23:48.036Z,96.76
2022-11-05T06:24:48.148Z,96.97
2022-11-05T06:25:48.222Z,96.86
2022-11-05T06:26:48.330Z,96.76
2022-11-05T06:27:48.420Z,96.76
2022-11-05T06:28:48.496Z,96.66
2022-11-05T06:29:48.588Z,96.55
2022-11-05T06:30:48.682Z,96.55
2022-11-05T06:31:48.760Z,96.55
2022-11-05T06:32:48.884Z,96.66
2022-11-05T06:33:48.950Z,96.76
2022-11-05T06:34:49.010Z,97.07
2022-11-05T06:35:49.088Z,97.17
2022-11-05T06:36:49.201Z,97.07
2022-11-05T06:37:49.306Z,97.17
2022-11-05T06:38:49.373Z,97.17
2022-11-05T06:39:49.453Z,96.97
2022-11-05T06:40:49.546Z,96.86
2022-11-05T06:42:17.870Z,96.76
2022-11-05T06:42:49.732Z,96.66
2022-11-05T06:43:49.766Z,96.70
2022-11-05T06:44:49.876Z,96.59
2022-11-05T06:45:49.954Z,96.49
2022-11-05T06:46:50.037Z,96.39
2022-11-05T06:47:50.247Z,96.39
2022-11-05T06:48:50.201Z,96.39
2022-11-05T06:49:50.276Z,96.39
2022-11-05T06:50:50.388Z,96.39
2022-11-05T06:51:50.463Z,96.49
2022-11-05T06:52:50.565Z,96.49
2022-11-05T06:53:50.643Z,96.59
2022-11-05T06:54:50.708Z,96.59
2022-11-05T06:55:50.777Z,96.49
2022-11-05T06:56:50.885Z,96.34
2022-11-05T06:57:50.984Z,96.34
2022-11-05T06:58:51.027Z,96.24
2022-11-05T06:59:54.559Z,96.24
2022-11-05T07:00:51.238Z,96.24
2022-11-05T07:01:51.316Z,96.14
2022-11-05T07:02:51.356Z,96.14
2022-11-05T07:03:51.397Z,95.62
2022-11-05T07:04:51.464Z,95.25
2022-11-05T07:05:51.542Z,95.25
2022-11-05T07:06:51.636Z,95.21
2022-11-05T07:07:51.726Z,95.31
2022-11-05T07:08:51.794Z,95.52
2022-11-05T07:09:51.876Z,95.62
2022-11-05T07:10:51.962Z,95.62
2022-11-05T07:11:52.041Z,95.52
2022-11-05T07:12:52.169Z,95.31
2022-11-05T07:13:52.207Z,95.17
2022-11-05T07:14:52.318Z,95.10
2022-11-05T07:15:52.402Z,94.96
2022-11-05T07:16:52.485Z,94.75
2022-11-05T07:17:52.596Z,94.59
2022-11-05T07:18:52.665Z,94.65
2022-11-05T07:19:52.713Z,94.75
2022-11-05T07:20:52.829Z,94.85
2022-11-05T07:21:52.906Z,94.85
2022-11-05T07:22:53.006Z,94.96
2022-11-05T07:23:53.042Z,94.96
2022-11-05T07:24:53.151Z,95.06
2022-11-05T07:25:53.230Z,94.81
2022-11-05T07:26:53.303Z,94.81
2022-11-05T07:27:53.401Z,94.81
2022-11-05T07:28:53.467Z,94.92
2022-11-05T07:29:53.543Z,95.02
2022-11-05T07:30:53.627Z,94.97
2022-11-05T07:31:53.706Z,94.97
2022-11-05T07:32:53.821Z,94.72
2022-11-05T07:33:53.866Z,94.42
2022-11-05T07:34:53.947Z,94.27
2022-11-05T07:35:54.023Z,94.02
2022-11-05T07:36:54.131Z,93.21
2022-11-05T07:37:54.231Z,92.03
2022-11-05T07:38:59.953Z,91.68
2022-11-05T07:39:54.365Z,90.55
2022-11-05T07:40:54.441Z,89.52
2022-11-05T07:41:54.513Z,89.97
2022-11-05T07:42:54.639Z,90.08
2022-11-05T07:43:54.663Z,89.87
2022-11-05T07:44:54.756Z,89.56
2022-11-05T07:45:54.837Z,89.56
2022-11-05T07:46:54.922Z,89.67
2022-11-05T07:47:55.022Z,89.67
2022-11-05T07:48:55.087Z,89.67
2022-11-05T07:49:55.163Z,89.77
2022-11-05T07:50:55.274Z,90.01
2022-11-05T07:51:55.333Z,90.28
2022-11-05T07:52:55.446Z,90.49
2022-11-05T07:53:55.501Z,90.69
2022-11-05T07:54:55.571Z,90.80
2022-11-05T07:55:55.646Z,90.59
2022-11-05T07:56:55.727Z,90.59
2022-11-05T07:57:55.817Z,90.75
2022-11-05T07:58:55.881Z,90.80
2022-11-05T07:59:55.960Z,90.86
2022-11-05T08:00:56.180Z,91.00
2022-11-05T08:01:56.269Z,91.21
2022-11-05T08:02:58.570Z,91.72
2022-11-05T08:03:56.274Z,91.93
2022-11-05T08:04:56.347Z,92.10
2022-11-05T08:05:56.455Z,92.10
2022-11-05T08:06:56.529Z,91.99
2022-11-05T08:07:56.656Z,91.74
2022-11-05T08:08:56.698Z,91.74
2022-11-05T08:09:56.801Z,91.39
2022-11-05T08:10:56.871Z,90.98
2022-11-05T08:12:02.440Z,90.78
2022-11-05T08:12:57.045Z,90.53
2022-11-05T08:13:57.100Z,90.42
2022-11-05T08:14:57.177Z,90.12
2022-11-05T08:15:57.271Z,90.01
2022-11-05T08:16:57.345Z,90.01
2022-11-05T08:17:57.466Z,90.01
2022-11-05T08:18:57.506Z,89.97
2022-11-05T08:19:57.586Z,90.08
2022-11-05T08:20:57.675Z,90.18
2022-11-05T08:21:57.746Z,90.18
2022-11-05T08:22:57.822Z,89.66
2022-11-05T08:23:57.895Z,89.46
2022-11-05T08:25:01.416Z,89.21
2022-11-05T08:25:58.056Z,88.35
2022-11-05T08:26:58.136Z,87.90
2022-11-05T08:27:58.227Z,87.51
2022-11-05T08:28:58.300Z,86.29
2022-11-05T08:29:58.374Z,81.43
2022-11-05T08:30:58.451Z,78.12
2022-11-05T08:31:58.548Z,75.02
2022-11-05T08:32:58.591Z,71.88
2022-11-05T08:34:02.414Z,70.21
2022-11-05T08:34:58.760Z,68.26
2022-11-05T08:35:58.838Z,64.64
2022-11-05T08:36:58.899Z,62.93
2022-11-05T08:37:59.024Z,60.85
2022-11-05T08:38:59.061Z,58.95
2022-11-05T08:39:59.171Z,57.39
2022-11-05T08:40:59.208Z,55.76
2022-11-05T08:41:59.319Z,54.80
2022-11-05T08:42:59.421Z,53.57
2022-11-05T08:43:59.500Z,53.52
2022-11-05T08:44:59.590Z,52.49
2022-11-05T08:45:59.668Z,52.57
2022-11-05T08:46:59.754Z,50.39
2022-11-05T08:47:59.865Z,52.44
2022-11-05T08:48:59.912Z,51.52
2022-11-05T08:49:59.986Z,49.09
2022-11-05T08:51:00.084Z,50.17
2022-11-05T08:52:00.150Z,49.95
2022-11-05T08:53:00.266Z,48.93
2022-11-05T08:54:00.349Z,49.00
2022-11-05T08:55:00.422Z,47.30
2022-11-05T08:56:00.525Z,47.60
2022-11-05T08:57:00.572Z,47.58
2022-11-05T08:58:00.667Z,46.86
2022-11-05T08:59:00.706Z,46.64
2022-11-05T09:00:00.802Z,45.04
2022-11-05T09:01:05.053Z,44.67
2022-11-05T09:02:01.041Z,44.69
2022-11-05T09:03:01.011Z,45.51
2022-11-05T09:04:01.067Z,46.80
2022-11-05T09:05:01.158Z,45.89
2022-11-05T09:06:01.257Z,44.71
2022-11-05T09:07:01.343Z,46.61
2022-11-05T09:08:01.819Z,45.98
2022-11-05T09:09:01.487Z,45.31
2022-11-05T09:10:01.573Z,45.71
2022-11-05T09:11:01.618Z,45.81
2022-11-05T09:12:17.153Z,46.48
2022-11-05T09:13:01.783Z,45.06
2022-11-05T09:14:01.847Z,44.67
2022-11-05T09:15:01.904Z,43.87
2022-11-05T09:16:02.016Z,44.57
2022-11-05T09:17:02.088Z,44.45
2022-11-05T09:18:02.196Z,44.01
2022-11-05T09:19:02.238Z,43.88
2022-11-05T09:20:02.346Z,42.99
2022-11-05T09:21:02.433Z,42.33
2022-11-05T09:22:02.507Z,43.03
2022-11-05T09:23:02.615Z,42.91
2022-11-05T09:24:02.686Z,42.91
2022-11-05T09:25:02.758Z,43.11
2022-11-05T09:26:02.836Z,43.19
2022-11-05T09:27:02.924Z,42.99
2022-11-05T09:28:03.025Z,42.37
2022-11-05T09:29:03.074Z,42.85
2022-11-05T09:30:03.151Z,42.75
2022-11-05T09:31:03.224Z,41.44
2022-11-05T09:32:03.294Z,41.55
2022-11-05T09:33:03.397Z,41.63
2022-11-05T09:34:03.475Z,41.14
2022-11-05T09:35:03.557Z,42.61
2022-11-05T09:36:03.631Z,40.50
2022-11-05T09:37:03.714Z,41.39
2022-11-05T09:38:03.816Z,40.90
2022-11-05T09:39:03.857Z,40.80
2022-11-05T09:40:03.929Z,41.00
2022-11-05T09:41:04.005Z,40.82
2022-11-05T09:42:04.074Z,41.75
2022-11-05T09:43:04.180Z,42.37
2022-11-05T09:44:04.251Z,41.69
2022-11-05T09:45:04.340Z,42.29
2022-11-05T09:46:04.430Z,42.99
2022-11-05T09:47:04.542Z,41.89
2022-11-05T09:48:04.638Z,42.83
2022-11-05T09:49:04.685Z,43.75
2022-11-05T09:50:04.761Z,43.33
2022-11-05T09:51:04.850Z,43.43
2022-11-05T09:52:04.941Z,43.13
2022-11-05T09:53:05.032Z,44.19
2022-11-05T09:54:05.103Z,44.91
2022-11-05T09:55:05.233Z,44.41
2022-11-05T09:56:05.285Z,45.10
2022-11-05T09:57:05.376Z,44.89
2022-11-05T09:58:05.489Z,45.71
2022-11-05T09:59:05.537Z,44.49
2022-11-05T10:00:05.618Z,45.21
2022-11-05T10:01:05.721Z,45.93
2022-11-05T10:02:05.935Z,46.55
2022-11-05T10:03:05.869Z,45.57
2022-11-05T10:04:05.921Z,46.19
2022-11-05T10:05:09.693Z,46.62
2022-11-05T10:06:06.104Z,47.61
2022-11-05T10:07:06.194Z,48.83
2022-11-05T10:08:06.285Z,50.48
2022-11-05T10:09:06.332Z,51.04
2022-11-05T10:10:06.402Z,52.09
2022-11-05T10:11:06.490Z,53.52
2022-11-05T10:12:06.593Z,53.75
2022-11-05T10:13:06.688Z,54.05
2022-11-05T10:14:06.766Z,55.41
2022-11-05T10:15:06.847Z,56.62
2022-11-05T10:16:06.925Z,56.68
2022-11-05T10:17:07.013Z,58.19
2022-11-05T10:18:07.118Z,57.03
2022-11-05T10:19:07.157Z,57.89
2022-11-05T10:20:07.229Z,58.53
2022-11-05T10:21:07.302Z,60.85
2022-11-05T10:22:07.603Z,60.65
2022-11-05T10:23:07.495Z,61.16
2022-11-05T10:24:07.573Z,60.88
2022-11-05T10:25:07.639Z,61.39
2022-11-05T10:26:07.717Z,61.59
2022-11-05T10:27:07.892Z,61.08
2022-11-05T10:28:07.877Z,61.41
2022-11-05T10:29:07.928Z,61.24
2022-11-05T10:30:08.021Z,61.04
2022-11-05T10:31:08.074Z,61.85
2022-11-05T10:32:08.163Z,62.35
2022-11-05T10:33:08.372Z,62.66
2022-11-05T10:34:08.312Z,61.85
2022-11-05T10:35:08.365Z,62.59
2022-11-05T10:36:08.468Z,62.79
2022-11-05T10:37:08.528Z,63.09
2022-11-05T10:38:08.623Z,62.89
2022-11-05T10:39:08.695Z,62.79
2022-11-05T10:40:08.750Z,62.38
2022-11-05T10:41:08.829Z,61.88
2022-11-05T10:42:08.884Z,61.40
2022-11-05T10:43:09.299Z,61.80
2022-11-05T10:44:09.049Z,62.21
2022-11-05T10:45:09.128Z,63.23
2022-11-05T10:46:09.215Z,63.63
2022-11-05T10:47:09.285Z,62.72
2022-11-05T10:48:09.394Z,63.63
2022-11-05T10:49:09.465Z,62.01
2022-11-05T10:50:09.628Z,63.23
2022-11-05T10:51:09.640Z,62.52
2022-11-05T10:52:09.690Z,62.52
2022-11-05T10:53:10.225Z,62.95
2022-11-05T10:54:09.860Z,63.15
2022-11-05T10:55:09.938Z,63.66
2022-11-05T10:56:10.028Z,63.76
2022-11-05T10:57:10.122Z,62.95
2022-11-05T10:58:10.229Z,63.86
2022-11-05T10:59:12.349Z,63.96
2022-11-05T11:00:10.374Z,62.65
2022-11-05T11:01:10.506Z,62.65
2022-11-05T11:02:10.705Z,62.85
2022-11-05T11:03:10.947Z,62.65
2022-11-05T11:04:10.684Z,62.75
2022-11-05T11:05:10.776Z,62.54
2022-11-05T11:06:10.845Z,62.65
2022-11-05T11:07:10.941Z,63.15
2022-11-05T11:08:11.011Z,63.76
2022-11-05T11:09:11.089Z,62.95
2022-11-05T11:10:11.181Z,63.35
2022-11-05T11:11:11.253Z,63.46
2022-11-05T11:12:11.310Z,64.07
2022-11-05T11:13:11.705Z,63.66
2022-11-05T11:14:11.463Z,63.79
2022-11-05T11:15:11.570Z,65.11
2022-11-05T11:16:11.650Z,64.88
2022-11-05T11:17:11.745Z,64.78
2022-11-05T11:18:11.823Z,64.37
2022-11-05T11:19:11.887Z,64.17
2022-11-05T11:20:11.941Z,65.18
2022-11-05T11:21:12.019Z,65.39
2022-11-05T11:22:12.070Z,65.08
2022-11-05T11:23:12.377Z,64.88
2022-11-05T11:24:12.215Z,64.27
2022-11-05T11:25:12.293Z,63.96
2022-11-05T11:26:12.345Z,64.78
2022-11-05T11:27:12.418Z,64.40
2022-11-05T11:28:12.519Z,63.69
2022-11-05T11:29:12.596Z,63.49
2022-11-05T11:30:12.650Z,63.69
2022-11-05T11:31:12.742Z,64.00
2022-11-05T11:32:12.793Z,64.61
2022-11-05T11:33:13.338Z,65.31
2022-11-05T11:34:12.953Z,63.89
2022-11-05T11:35:13.040Z,63.79
2022-11-05T11:36:13.089Z,65.42
2022-11-05T11:37:19.049Z,64.27
2022-11-05T11:38:13.267Z,65.39
2022-11-05T11:39:13.340Z,64.07
2022-11-05T11:40:13.391Z,63.46
2022-11-05T11:41:13.465Z,64.37
2022-11-05T11:42:13.516Z,62.85
2022-11-05T11:43:13.945Z,63.15
2022-11-05T11:44:13.649Z,63.15
2022-11-05T11:45:13.729Z,63.56
2022-11-05T11:46:15.099Z,62.75
2022-11-05T11:47:13.910Z,63.15
2022-11-05T11:48:13.975Z,62.45
2022-11-05T11:49:14.050Z,63.46
2022-11-05T11:50:14.123Z,63.66
2022-11-05T11:51:14.208Z,62.85
2022-11-05T11:52:14.257Z,61.94
2022-11-05T11:53:14.422Z,62.75
2022-11-05T11:54:14.407Z,61.76
2022-11-05T11:55:14.487Z,61.97
2022-11-05T11:56:14.576Z,61.87
2022-11-05T11:57:15.284Z,62.48
2022-11-05T11:58:14.751Z,62.68
2022-11-05T11:59:14.809Z,62.95
2022-11-05T12:00:14.978Z,62.54
2022-11-05T12:01:14.977Z,63.26
2022-11-05T12:02:15.155Z,63.18
2022-11-05T12:03:15.609Z,63.49
2022-11-05T12:04:15.188Z,62.98
2022-11-05T12:05:15.273Z,61.97
2022-11-05T12:06:15.328Z,61.99
2022-11-05T12:07:15.410Z,62.30
2022-11-05T12:08:15.517Z,62.51
2022-11-05T12:09:15.589Z,62.63
2022-11-05T12:10:15.643Z,62.94
2022-11-05T12:11:15.732Z,63.65
2022-11-05T12:12:15.823Z,63.04
2022-11-05T12:13:15.942Z,63.75
2022-11-05T12:14:15.988Z,63.95
2022-11-05T12:15:16.087Z,63.34
2022-11-05T12:16:16.140Z,63.45
2022-11-05T12:17:16.221Z,63.65
2022-11-05T12:18:16.307Z,63.24
2022-11-05T12:19:16.339Z,63.34
2022-11-05T12:20:16.427Z,64.15
2022-11-05T12:21:25.033Z,64.09
2022-11-05T12:22:16.576Z,64.59
2022-11-05T12:23:16.652Z,64.29
2022-11-05T12:24:16.724Z,64.59
2022-11-05T12:25:16.782Z,64.18
2022-11-05T12:26:16.875Z,63.88
2022-11-05T12:27:16.927Z,63.58
2022-11-05T12:28:17.038Z,63.78
2022-11-05T12:29:19.309Z,63.98
2022-11-05T12:30:17.169Z,64.29
2022-11-05T12:31:17.237Z,64.49
2022-11-05T12:32:17.382Z,65.30
2022-11-05T12:33:17.684Z,64.59
2022-11-05T12:34:17.483Z,65.00
2022-11-05T12:35:17.551Z,64.73
2022-11-05T12:36:17.624Z,65.94
2022-11-05T12:37:17.717Z,65.13
2022-11-05T12:38:17.819Z,65.74
2022-11-05T12:39:17.848Z,66.25
2022-11-05T12:40:17.928Z,65.54
2022-11-05T12:41:18.020Z,65.74
2022-11-05T12:42:18.103Z,65.33
2022-11-05T12:43:18.640Z,65.54
2022-11-05T12:44:18.238Z,65.44
2022-11-05T12:45:18.292Z,65.36
2022-11-05T12:46:18.374Z,65.77
2022-11-05T12:47:18.429Z,64.76
2022-11-05T12:48:20.902Z,64.76
2022-11-05T12:49:18.581Z,65.26
2022-11-05T12:50:18.667Z,65.67
2022-11-05T12:51:18.738Z,66.49
2022-11-05T12:52:18.833Z,66.18
2022-11-05T12:53:18.898Z,65.77